sensor_id;sensor_type;location;lat;lon;timestamp;pressure;altitude;pressure_sealevel;temperature;humidity
40850;BME280;26571;41.610;25.380;2023-02-10T00:02:21;100384.75;;;1.24;45.62
40850;BME280;26571;41.610;25.380;2023-02-10T00:04:46;100372.50;;;1.06;45.26
40850;BME280;26571;41.610;25.380;2023-02-10T00:07:12;100385.97;;;1.15;44.39
40850;BME280;26571;41.610;25.380;2023-02-10T00:09:37;100381.44;;;1.20;44.55
40850;BME280;26571;41.610;25.380;2023-02-10T00:12:03;100382.63;;;1.12;45.31
40850;BME280;26571;41.610;25.380;2023-02-10T00:14:29;100346.50;;;0.85;45.28
40850;BME280;26571;41.610;25.380;2023-02-10T00:16:55;100337.88;;;0.85;45.46
40850;BME280;26571;41.610;25.380;2023-02-10T00:19:23;100376.88;;;1.03;45.30
40850;BME280;26571;41.610;25.380;2023-02-10T00:21:49;100378.72;;;0.78;47.88
40850;BME280;26571;41.610;25.380;2023-02-10T00:24:14;100372.63;;;0.79;45.61
40850;BME280;26571;41.610;25.380;2023-02-10T00:26:40;100384.56;;;0.83;47.07
40850;BME280;26571;41.610;25.380;2023-02-10T00:29:05;100388.81;;;0.86;46.55
40850;BME280;26571;41.610;25.380;2023-02-10T00:31:31;100381.03;;;0.86;46.72
40850;BME280;26571;41.610;25.380;2023-02-10T00:33:56;100386.25;;;0.84;45.39
40850;BME280;26571;41.610;25.380;2023-02-10T00:36:22;100389.88;;;0.80;47.34
40850;BME280;26571;41.610;25.380;2023-02-10T00:38:50;100376.19;;;0.76;45.80
40850;BME280;26571;41.610;25.380;2023-02-10T00:41:18;100379.72;;;0.74;46.29
40850;BME280;26571;41.610;25.380;2023-02-10T00:43:44;100388.53;;;0.70;45.86
40850;BME280;26571;41.610;25.380;2023-02-10T00:46:11;100380.78;;;0.68;46.32
40850;BME280;26571;41.610;25.380;2023-02-10T00:48:37;100367.31;;;0.59;45.35
40850;BME280;26571;41.610;25.380;2023-02-10T00:51:03;100381.50;;;0.48;47.82
40850;BME280;26571;41.610;25.380;2023-02-10T00:53:29;100362.00;;;0.38;46.73
40850;BME280;26571;41.610;25.380;2023-02-10T00:55:55;100387.50;;;0.50;44.63
40850;BME280;26571;41.610;25.380;2023-02-10T00:58:21;100330.69;;;0.21;45.36
40850;BME280;26571;41.610;25.380;2023-02-10T01:00:47;100382.09;;;0.57;45.00
40850;BME280;26571;41.610;25.380;2023-02-10T01:03:12;100379.44;;;0.58;44.40
40850;BME280;26571;41.610;25.380;2023-02-10T01:05:38;100381.09;;;0.61;44.70
40850;BME280;26571;41.610;25.380;2023-02-10T01:08:04;100341.28;;;0.38;45.61
40850;BME280;26571;41.610;25.380;2023-02-10T01:10:29;100369.38;;;0.50;45.56
40850;BME280;26571;41.610;25.380;2023-02-10T01:12:54;100354.94;;;0.43;47.04
40850;BME280;26571;41.610;25.380;2023-02-10T01:15:20;100363.38;;;0.48;44.81
40850;BME280;26571;41.610;25.380;2023-02-10T01:17:45;100342.44;;;0.31;44.77
40850;BME280;26571;41.610;25.380;2023-02-10T01:20:11;100355.38;;;0.31;44.72
40850;BME280;26571;41.610;25.380;2023-02-10T01:22:36;100354.00;;;0.21;45.68
40850;BME280;26571;41.610;25.380;2023-02-10T01:25:02;100353.34;;;0.14;46.82
40850;BME280;26571;41.610;25.380;2023-02-10T01:27:28;100341.63;;;0.04;47.28
40850;BME280;26571;41.610;25.380;2023-02-10T01:29:53;100347.56;;;0.08;48.68
40850;BME280;26571;41.610;25.380;2023-02-10T01:32:18;100345.28;;;-0.02;50.22
40850;BME280;26571;41.610;25.380;2023-02-10T01:34:44;100339.25;;;-0.27;53.71
40850;BME280;26571;41.610;25.380;2023-02-10T01:37:10;100348.00;;;-0.05;50.17
40850;BME280;26571;41.610;25.380;2023-02-10T01:39:35;100293.72;;;-0.08;48.33
40850;BME280;26571;41.610;25.380;2023-02-10T01:42:01;100343.78;;;0.41;47.47
40850;BME280;26571;41.610;25.380;2023-02-10T01:46:53;100338.94;;;0.56;46.11
40850;BME280;26571;41.610;25.380;2023-02-10T01:49:21;100339.91;;;0.53;46.38
40850;BME280;26571;41.610;25.380;2023-02-10T01:52:00;100335.69;;;0.50;46.91
40850;BME280;26571;41.610;25.380;2023-02-10T01:54:32;100334.03;;;0.48;46.85
40850;BME280;26571;41.610;25.380;2023-02-10T01:56:59;100342.09;;;0.40;47.13
40850;BME280;26571;41.610;25.380;2023-02-10T01:59:27;100331.66;;;0.18;51.25
40850;BME280;26571;41.610;25.380;2023-02-10T02:01:55;100331.25;;;0.29;48.79
40850;BME280;26571;41.610;25.380;2023-02-10T02:04:21;100324.28;;;0.31;48.46
40850;BME280;26571;41.610;25.380;2023-02-10T02:06:47;100335.34;;;0.36;46.26
40850;BME280;26571;41.610;25.380;2023-02-10T02:09:13;100328.56;;;0.32;47.11
40850;BME280;26571;41.610;25.380;2023-02-10T02:11:47;100331.25;;;0.29;48.25
40850;BME280;26571;41.610;25.380;2023-02-10T02:14:23;100328.75;;;0.03;50.51
40850;BME280;26571;41.610;25.380;2023-02-10T02:31:34;100322.50;;;0.08;47.82
40850;BME280;26571;41.610;25.380;2023-02-10T02:34:18;100321.66;;;0.08;47.86
40850;BME280;26571;41.610;25.380;2023-02-10T02:37:04;100324.16;;;0.11;47.80
40850;BME280;26571;41.610;25.380;2023-02-10T02:39:32;100320.28;;;0.22;47.79
40850;BME280;26571;41.610;25.380;2023-02-10T02:44:38;100316.25;;;0.14;47.53
40850;BME280;26571;41.610;25.380;2023-02-10T02:56:12;100310.19;;;0.15;45.78
40850;BME280;26571;41.610;25.380;2023-02-10T03:01:51;100310.00;;;0.19;45.95
40850;BME280;26571;41.610;25.380;2023-02-10T03:04:20;100311.84;;;0.17;45.91
40850;BME280;26571;41.610;25.380;2023-02-10T03:06:46;100311.53;;;-0.23;48.78
40850;BME280;26571;41.610;25.380;2023-02-10T03:09:12;100322.97;;;-0.06;47.28
40850;BME280;26571;41.610;25.380;2023-02-10T03:11:38;100303.06;;;-0.04;47.56
40850;BME280;26571;41.610;25.380;2023-02-10T03:14:03;100306.41;;;0.00;46.13
40850;BME280;26571;41.610;25.380;2023-02-10T03:16:29;100294.94;;;-0.18;49.48
40850;BME280;26571;41.610;25.380;2023-02-10T03:18:54;100294.34;;;-0.01;47.06
40850;BME280;26571;41.610;25.380;2023-02-10T03:21:19;100283.84;;;-0.21;48.63
40850;BME280;26571;41.610;25.380;2023-02-10T03:23:45;100296.22;;;-0.05;48.17
40850;BME280;26571;41.610;25.380;2023-02-10T03:26:10;100294.50;;;-0.06;47.58
40850;BME280;26571;41.610;25.380;2023-02-10T03:28:36;100291.97;;;-0.07;47.77
40850;BME280;26571;41.610;25.380;2023-02-10T03:31:04;100293.03;;;-0.13;50.16
40850;BME280;26571;41.610;25.380;2023-02-10T03:33:29;100256.75;;;-0.36;48.63
40850;BME280;26571;41.610;25.380;2023-02-10T03:35:55;100298.13;;;-0.10;48.21
40850;BME280;26571;41.610;25.380;2023-02-10T03:38:20;100279.88;;;-0.07;47.61
40850;BME280;26571;41.610;25.380;2023-02-10T03:40:49;100286.63;;;-0.03;45.93
40850;BME280;26571;41.610;25.380;2023-02-10T03:43:15;100299.28;;;0.07;46.62
40850;BME280;26571;41.610;25.380;2023-02-10T03:45:41;100301.84;;;0.07;46.52
40850;BME280;26571;41.610;25.380;2023-02-10T03:48:06;100291.66;;;0.02;47.33
40850;BME280;26571;41.610;25.380;2023-02-10T03:50:32;100299.59;;;-0.03;48.53
40850;BME280;26571;41.610;25.380;2023-02-10T03:52:57;100305.75;;;-0.07;47.16
40850;BME280;26571;41.610;25.380;2023-02-10T03:55:23;100301.94;;;-0.20;47.97
40850;BME280;26571;41.610;25.380;2023-02-10T03:57:48;100301.81;;;-0.17;46.79
40850;BME280;26571;41.610;25.380;2023-02-10T04:00:14;100300.50;;;-0.29;49.69
40850;BME280;26571;41.610;25.380;2023-02-10T04:02:40;100307.66;;;-0.12;48.17
40850;BME280;26571;41.610;25.380;2023-02-10T04:05:06;100306.50;;;-0.28;49.06
40850;BME280;26571;41.610;25.380;2023-02-10T04:07:31;100306.22;;;-0.45;49.87
40850;BME280;26571;41.610;25.380;2023-02-10T04:09:57;100259.19;;;-0.83;49.70
40850;BME280;26571;41.610;25.380;2023-02-10T04:12:22;100245.28;;;-0.79;49.66
40850;BME280;26571;41.610;25.380;2023-02-10T04:14:47;100311.91;;;-0.34;49.08
40850;BME280;26571;41.610;25.380;2023-02-10T04:17:14;100304.91;;;-0.32;47.42
40850;BME280;26571;41.610;25.380;2023-02-10T04:19:39;100308.34;;;-0.32;47.50
40850;BME280;26571;41.610;25.380;2023-02-10T04:22:05;100312.69;;;-0.32;46.30
40850;BME280;26571;41.610;25.380;2023-02-10T04:24:30;100316.16;;;-0.33;46.73
40850;BME280;26571;41.610;25.380;2023-02-10T04:26:56;100313.59;;;-0.33;46.80
40850;BME280;26571;41.610;25.380;2023-02-10T04:29:22;100317.94;;;-0.35;46.71
40850;BME280;26571;41.610;25.380;2023-02-10T04:31:47;100316.25;;;-0.36;46.10
40850;BME280;26571;41.610;25.380;2023-02-10T04:34:12;100317.25;;;-0.40;45.83
40850;BME280;26571;41.610;25.380;2023-02-10T04:36:38;100318.16;;;-0.41;45.88
40850;BME280;26571;41.610;25.380;2023-02-10T04:39:03;100321.78;;;-0.47;47.43
40850;BME280;26571;41.610;25.380;2023-02-10T04:41:29;100325.34;;;-0.49;46.03
40850;BME280;26571;41.610;25.380;2023-02-10T04:43:54;100319.50;;;-0.56;46.63
40850;BME280;26571;41.610;25.380;2023-02-10T04:46:20;100294.72;;;-0.90;48.30
40850;BME280;26571;41.610;25.380;2023-02-10T04:48:45;100328.56;;;-0.97;52.55
40850;BME280;26571;41.610;25.380;2023-02-10T04:51:12;100325.66;;;-0.87;49.45
40850;BME280;26571;41.610;25.380;2023-02-10T04:53:39;100330.19;;;-0.93;48.15
40850;BME280;26571;41.610;25.380;2023-02-10T04:56:05;100326.69;;;-0.92;49.17
40850;BME280;26571;41.610;25.380;2023-02-10T04:58:31;100330.75;;;-0.85;47.87
40850;BME280;26571;41.610;25.380;2023-02-10T05:00:57;100334.94;;;-0.81;47.65
40850;BME280;26571;41.610;25.380;2023-02-10T05:03:23;100342.56;;;-0.76;47.14
40850;BME280;26571;41.610;25.380;2023-02-10T05:05:48;100337.41;;;-0.76;47.91
40850;BME280;26571;41.610;25.380;2023-02-10T05:08:16;100336.56;;;-0.77;48.21
40850;BME280;26571;41.610;25.380;2023-02-10T05:10:46;100343.13;;;-0.67;47.72
40850;BME280;26571;41.610;25.380;2023-02-10T05:13:12;100329.91;;;-0.84;49.11
40850;BME280;26571;41.610;25.380;2023-02-10T05:15:37;100340.38;;;-0.89;49.10
40850;BME280;26571;41.610;25.380;2023-02-10T05:18:02;100342.47;;;-1.01;49.64
40850;BME280;26571;41.610;25.380;2023-02-10T05:20:28;100346.31;;;-1.15;49.60
40850;BME280;26571;41.610;25.380;2023-02-10T05:22:53;100346.28;;;-1.13;50.28
40850;BME280;26571;41.610;25.380;2023-02-10T05:25:19;100345.47;;;-1.15;48.04
40850;BME280;26571;41.610;25.380;2023-02-10T05:27:44;100353.28;;;-1.17;48.42
40850;BME280;26571;41.610;25.380;2023-02-10T05:30:10;100332.16;;;-1.31;47.94
40850;BME280;26571;41.610;25.380;2023-02-10T05:32:38;100356.13;;;-1.26;48.75
40850;BME280;26571;41.610;25.380;2023-02-10T05:35:04;100343.56;;;-1.38;48.83
40850;BME280;26571;41.610;25.380;2023-02-10T05:37:29;100344.00;;;-1.53;48.34
40850;BME280;26571;41.610;25.380;2023-02-10T05:39:55;100349.63;;;-1.39;49.03
40850;BME280;26571;41.610;25.380;2023-02-10T05:42:21;100356.00;;;-1.21;49.48
40850;BME280;26571;41.610;25.380;2023-02-10T05:44:46;100352.25;;;-0.83;47.26
40850;BME280;26571;41.610;25.380;2023-02-10T05:47:12;100356.75;;;-0.09;45.88
40850;BME280;26571;41.610;25.380;2023-02-10T05:49:37;100351.88;;;0.79;45.82
40850;BME280;26571;41.610;25.380;2023-02-10T05:52:02;100354.91;;;1.78;43.72
40850;BME280;26571;41.610;25.380;2023-02-10T05:54:28;100355.84;;;2.76;41.07
40850;BME280;26571;41.610;25.380;2023-02-10T05:56:54;100338.16;;;3.56;40.33
40850;BME280;26571;41.610;25.380;2023-02-10T05:59:20;100336.75;;;4.36;37.93
40850;BME280;26571;41.610;25.380;2023-02-10T06:01:45;100360.00;;;5.21;35.91
40850;BME280;26571;41.610;25.380;2023-02-10T06:04:11;100326.53;;;5.74;35.09
40850;BME280;26571;41.610;25.380;2023-02-10T06:06:36;100361.06;;;6.67;34.50
40850;BME280;26571;41.610;25.380;2023-02-10T06:09:03;100356.50;;;7.27;32.23
40850;BME280;26571;41.610;25.380;2023-02-10T06:11:28;100363.31;;;7.96;31.19
40850;BME280;26571;41.610;25.380;2023-02-10T06:13:54;100355.53;;;8.47;30.65
40850;BME280;26571;41.610;25.380;2023-02-10T06:16:19;100354.97;;;8.67;29.72
40850;BME280;26571;41.610;25.380;2023-02-10T06:18:45;100357.47;;;8.82;30.25
40850;BME280;26571;41.610;25.380;2023-02-10T06:21:13;100358.78;;;9.37;29.46
40850;BME280;26571;41.610;25.380;2023-02-10T06:23:38;100359.69;;;9.72;28.56
40850;BME280;26571;41.610;25.380;2023-02-10T06:26:04;100363.13;;;9.97;27.68
40850;BME280;26571;41.610;25.380;2023-02-10T06:28:29;100361.25;;;9.75;27.61
40850;BME280;26571;41.610;25.380;2023-02-10T06:30:54;100367.06;;;9.67;28.28
40850;BME280;26571;41.610;25.380;2023-02-10T06:33:20;100365.94;;;9.82;27.75
40850;BME280;26571;41.610;25.380;2023-02-10T06:35:46;100363.38;;;9.46;29.19
40850;BME280;26571;41.610;25.380;2023-02-10T06:38:12;100361.84;;;8.94;28.32
40850;BME280;26571;41.610;25.380;2023-02-10T06:40:38;100357.84;;;8.51;28.69
40850;BME280;26571;41.610;25.380;2023-02-10T06:43:04;100356.22;;;8.23;29.36
40850;BME280;26571;41.610;25.380;2023-02-10T06:45:29;100365.41;;;8.03;29.37
40850;BME280;26571;41.610;25.380;2023-02-10T06:47:55;100333.06;;;7.77;29.84
40850;BME280;26571;41.610;25.380;2023-02-10T06:50:21;100369.66;;;8.32;29.70
40850;BME280;26571;41.610;25.380;2023-02-10T06:52:47;100359.88;;;8.08;30.69
40850;BME280;26571;41.610;25.380;2023-02-10T06:55:13;100366.50;;;8.26;29.65
40850;BME280;26571;41.610;25.380;2023-02-10T06:57:39;100357.88;;;8.24;29.87
40850;BME280;26571;41.610;25.380;2023-02-10T07:00:07;100365.84;;;7.58;30.67
40850;BME280;26571;41.610;25.380;2023-02-10T07:02:34;100364.59;;;6.95;31.04
40850;BME280;26571;41.610;25.380;2023-02-10T07:04:59;100360.69;;;6.73;32.09
40850;BME280;26571;41.610;25.380;2023-02-10T07:07:25;100335.38;;;7.15;32.12
40850;BME280;26571;41.610;25.380;2023-02-10T07:09:51;100364.41;;;7.66;30.81
40850;BME280;26571;41.610;25.380;2023-02-10T07:12:21;100354.66;;;7.68;30.86
40850;BME280;26571;41.610;25.380;2023-02-10T07:14:46;100362.69;;;7.65;30.75
40850;BME280;26571;41.610;25.380;2023-02-10T07:17:12;100357.03;;;7.59;30.92
40850;BME280;26571;41.610;25.380;2023-02-10T07:19:37;100353.16;;;8.04;31.01
40850;BME280;26571;41.610;25.380;2023-02-10T07:22:03;100351.63;;;8.40;30.68
40850;BME280;26571;41.610;25.380;2023-02-10T07:24:32;100342.59;;;8.57;30.47
40850;BME280;26571;41.610;25.380;2023-02-10T07:26:58;100351.25;;;8.95;29.55
40850;BME280;26571;41.610;25.380;2023-02-10T07:29:23;100341.44;;;9.10;29.86
40850;BME280;26571;41.610;25.380;2023-02-10T07:31:49;100341.47;;;9.69;29.13
40850;BME280;26571;41.610;25.380;2023-02-10T07:34:14;100346.03;;;10.02;28.61
40850;BME280;26571;41.610;25.380;2023-02-10T07:36:40;100349.38;;;10.40;28.71
40850;BME280;26571;41.610;25.380;2023-02-10T07:39:05;100348.88;;;10.68;27.63
40850;BME280;26571;41.610;25.380;2023-02-10T07:41:31;100333.69;;;10.60;27.93
40850;BME280;26571;41.610;25.380;2023-02-10T07:43:57;100308.53;;;10.68;27.02
40850;BME280;26571;41.610;25.380;2023-02-10T07:46:22;100347.94;;;10.92;27.07
40850;BME280;26571;41.610;25.380;2023-02-10T07:48:48;100322.69;;;10.44;27.46
40850;BME280;26571;41.610;25.380;2023-02-10T07:51:13;100350.19;;;9.94;28.73
40850;BME280;26571;41.610;25.380;2023-02-10T07:53:39;100341.44;;;10.28;28.51
40850;BME280;26571;41.610;25.380;2023-02-10T07:56:05;100333.31;;;10.87;27.69
40850;BME280;26571;41.610;25.380;2023-02-10T07:58:31;100327.44;;;10.95;27.19
40850;BME280;26571;41.610;25.380;2023-02-10T08:00:56;100342.91;;;11.00;26.88
40850;BME280;26571;41.610;25.380;2023-02-10T08:03:22;100342.34;;;10.05;28.33
40850;BME280;26571;41.610;25.380;2023-02-10T08:05:47;100335.97;;;9.96;28.45
40850;BME280;26571;41.610;25.380;2023-02-10T08:08:14;100335.88;;;10.09;28.52
40850;BME280;26571;41.610;25.380;2023-02-10T08:10:40;100327.69;;;10.47;27.26
40850;BME280;26571;41.610;25.380;2023-02-10T08:13:06;100327.59;;;10.71;27.29
40850;BME280;26571;41.610;25.380;2023-02-10T08:15:32;100315.72;;;10.77;27.09
40850;BME280;26571;41.610;25.380;2023-02-10T08:17:59;100325.78;;;10.72;27.07
40850;BME280;26571;41.610;25.380;2023-02-10T08:20:25;100323.16;;;9.92;28.02
40850;BME280;26571;41.610;25.380;2023-02-10T08:22:57;100308.13;;;10.05;27.61
40850;BME280;26571;41.610;25.380;2023-02-10T08:25:23;100319.38;;;10.18;28.39
40850;BME280;26571;41.610;25.380;2023-02-10T08:27:49;100319.44;;;10.52;27.84
40850;BME280;26571;41.610;25.380;2023-02-10T08:30:14;100323.03;;;10.40;27.56
40850;BME280;26571;41.610;25.380;2023-02-10T08:32:40;100319.38;;;10.18;29.58
40850;BME280;26571;41.610;25.380;2023-02-10T08:35:06;100316.81;;;10.52;28.63
40850;BME280;26571;41.610;25.380;2023-02-10T08:37:31;100331.66;;;10.75;28.45
40850;BME280;26571;41.610;25.380;2023-02-10T08:39:57;100327.22;;;9.84;27.56
40850;BME280;26571;41.610;25.380;2023-02-10T08:42:23;100333.34;;;8.64;29.82
40850;BME280;26571;41.610;25.380;2023-02-10T08:44:49;100320.50;;;7.95;29.09
40850;BME280;26571;41.610;25.380;2023-02-10T08:47:14;100319.69;;;8.20;28.68
40850;BME280;26571;41.610;25.380;2023-02-10T08:49:41;100314.78;;;8.16;30.72
40850;BME280;26571;41.610;25.380;2023-02-10T08:52:07;100312.13;;;8.28;29.23
40850;BME280;26571;41.610;25.380;2023-02-10T08:54:32;100312.75;;;8.19;30.66
40850;BME280;26571;41.610;25.380;2023-02-10T08:56:58;100302.22;;;8.83;29.13
40850;BME280;26571;41.610;25.380;2023-02-10T08:59:24;100296.31;;;8.56;27.99
40850;BME280;26571;41.610;25.380;2023-02-10T09:01:50;100285.56;;;7.95;27.95
40850;BME280;26571;41.610;25.380;2023-02-10T09:04:15;100305.22;;;8.02;30.67
40850;BME280;26571;41.610;25.380;2023-02-10T09:06:41;100312.66;;;8.34;28.71
40850;BME280;26571;41.610;25.380;2023-02-10T09:09:14;100297.25;;;8.16;29.78
40850;BME280;26571;41.610;25.380;2023-02-10T09:11:41;100296.69;;;8.62;29.29
40850;BME280;26571;41.610;25.380;2023-02-10T09:14:07;100295.97;;;8.35;29.55
40850;BME280;26571;41.610;25.380;2023-02-10T09:16:34;100292.81;;;8.29;30.76
40850;BME280;26571;41.610;25.380;2023-02-10T09:18:59;100295.44;;;8.68;29.14
40850;BME280;26571;41.610;25.380;2023-02-10T09:21:25;100274.34;;;7.93;29.64
40850;BME280;26571;41.610;25.380;2023-02-10T09:23:51;100292.88;;;7.24;31.79
40850;BME280;26571;41.610;25.380;2023-02-10T09:26:16;100293.81;;;7.23;32.25
40850;BME280;26571;41.610;25.380;2023-02-10T09:28:42;100290.09;;;7.13;31.08
40850;BME280;26571;41.610;25.380;2023-02-10T09:31:08;100293.88;;;6.68;32.04
40850;BME280;26571;41.610;25.380;2023-02-10T09:33:35;100292.66;;;6.45;32.02
40850;BME280;26571;41.610;25.380;2023-02-10T09:36:05;100286.41;;;6.62;35.44
40850;BME280;26571;41.610;25.380;2023-02-10T09:38:31;100289.16;;;7.14;31.06
40850;BME280;26571;41.610;25.380;2023-02-10T09:46:27;100272.50;;;7.42;31.67
40850;BME280;26571;41.610;25.380;2023-02-10T09:53:56;100263.25;;;8.02;30.11
40850;BME280;26571;41.610;25.380;2023-02-10T09:56:22;100255.88;;;7.94;31.14
40850;BME280;26571;41.610;25.380;2023-02-10T09:58:53;100252.94;;;8.24;30.23
40850;BME280;26571;41.610;25.380;2023-02-10T10:01:25;100246.75;;;8.13;30.92
40850;BME280;26571;41.610;25.380;2023-02-10T10:03:56;100236.75;;;8.56;32.43
40850;BME280;26571;41.610;25.380;2023-02-10T10:06:30;100230.53;;;8.94;29.24
40850;BME280;26571;41.610;25.380;2023-02-10T10:11:49;100229.66;;;7.94;31.62
40850;BME280;26571;41.610;25.380;2023-02-10T10:14:22;100225.88;;;7.60;30.11
40850;BME280;26571;41.610;25.380;2023-02-10T10:27:55;100205.94;;;7.45;31.38
40850;BME280;26571;41.610;25.380;2023-02-10T10:30:46;100198.00;;;7.97;31.90
40850;BME280;26571;41.610;25.380;2023-02-10T10:33:24;100195.44;;;8.21;30.59
40850;BME280;26571;41.610;25.380;2023-02-10T10:35:52;100198.63;;;7.75;30.73
40850;BME280;26571;41.610;25.380;2023-02-10T10:38:23;100195.53;;;6.91;32.78
40850;BME280;26571;41.610;25.380;2023-02-10T10:40:55;100196.38;;;7.18;34.68
40850;BME280;26571;41.610;25.380;2023-02-10T10:43:26;100178.22;;;7.15;30.84
40850;BME280;26571;41.610;25.380;2023-02-10T10:46:14;100191.84;;;6.54;33.09
40850;BME280;26571;41.610;25.380;2023-02-10T10:48:41;100195.75;;;6.88;32.89
40850;BME280;26571;41.610;25.380;2023-02-10T10:51:08;100192.50;;;7.24;35.97
40850;BME280;26571;41.610;25.380;2023-02-10T10:53:50;100181.63;;;7.94;31.88
40850;BME280;26571;41.610;25.380;2023-02-10T10:58:55;100133.94;;;8.25;30.39
40850;BME280;26571;41.610;25.380;2023-02-10T11:01:38;100182.22;;;8.23;30.93
40850;BME280;26571;41.610;25.380;2023-02-10T11:04:21;100163.72;;;8.24;31.14
40850;BME280;26571;41.610;25.380;2023-02-10T11:06:51;100166.78;;;8.68;31.82
40850;BME280;26571;41.610;25.380;2023-02-10T11:11:49;100158.69;;;8.71;29.66
40850;BME280;26571;41.610;25.380;2023-02-10T11:14:18;100158.72;;;8.58;30.71
40850;BME280;26571;41.610;25.380;2023-02-10T11:16:48;100149.66;;;8.38;31.76
40850;BME280;26571;41.610;25.380;2023-02-10T11:19:22;100151.00;;;8.07;30.39
40850;BME280;26571;41.610;25.380;2023-02-10T11:21:49;100152.19;;;7.52;32.52
40850;BME280;26571;41.610;25.380;2023-02-10T11:24:22;100150.78;;;7.08;32.00
40850;BME280;26571;41.610;25.380;2023-02-10T11:27:00;100132.94;;;6.88;34.27
40850;BME280;26571;41.610;25.380;2023-02-10T11:29:30;100108.25;;;7.17;33.59
40850;BME280;26571;41.610;25.380;2023-02-10T11:31:56;100133.41;;;7.58;32.77
40850;BME280;26571;41.610;25.380;2023-02-10T11:34:33;100121.44;;;7.16;32.01
40850;BME280;26571;41.610;25.380;2023-02-10T11:37:11;100127.28;;;6.94;32.74
40850;BME280;26571;41.610;25.380;2023-02-10T11:39:40;100087.91;;;6.83;33.02
40850;BME280;26571;41.610;25.380;2023-02-10T11:42:20;100116.66;;;7.48;32.01
40850;BME280;26571;41.610;25.380;2023-02-10T11:47:19;100100.16;;;6.95;34.04
40850;BME280;26571;41.610;25.380;2023-02-10T11:49:47;100096.31;;;7.13;32.38
40850;BME280;26571;41.610;25.380;2023-02-10T11:52:14;100092.75;;;7.27;32.25
40850;BME280;26571;41.610;25.380;2023-02-10T11:54:41;100073.69;;;7.12;32.12
40850;BME280;26571;41.610;25.380;2023-02-10T12:06:03;100078.94;;;7.38;32.27
40850;BME280;26571;41.610;25.380;2023-02-10T12:09:00;100082.47;;;6.98;36.07
40850;BME280;26571;41.610;25.380;2023-02-10T12:14:18;100038.97;;;6.70;32.15
40850;BME280;26571;41.610;25.380;2023-02-10T12:19:48;100083.91;;;6.50;32.29
40850;BME280;26571;41.610;25.380;2023-02-10T12:22:24;100065.25;;;6.69;34.92
40850;BME280;26571;41.610;25.380;2023-02-10T12:25:13;100071.00;;;6.74;32.85
40850;BME280;26571;41.610;25.380;2023-02-10T12:28:24;100051.31;;;6.29;34.73
40850;BME280;26571;41.610;25.380;2023-02-10T12:36:27;100054.91;;;6.13;33.52
40850;BME280;26571;41.610;25.380;2023-02-10T12:39:09;100056.44;;;6.03;33.20
40850;BME280;26571;41.610;25.380;2023-02-10T12:50:22;100023.78;;;6.63;32.18
40850;BME280;26571;41.610;25.380;2023-02-10T12:53:12;100021.38;;;6.60;32.61
40850;BME280;26571;41.610;25.380;2023-02-10T12:55:55;100025.88;;;6.58;32.66
40850;BME280;26571;41.610;25.380;2023-02-10T12:58:35;100037.84;;;6.35;33.21
40850;BME280;26571;41.610;25.380;2023-02-10T13:01:35;100032.94;;;6.43;34.61
40850;BME280;26571;41.610;25.380;2023-02-10T13:04:10;100041.56;;;6.58;33.13
40850;BME280;26571;41.610;25.380;2023-02-10T13:06:42;100018.63;;;6.21;33.30
40850;BME280;26571;41.610;25.380;2023-02-10T13:14:42;100028.31;;;6.34;33.21
40850;BME280;26571;41.610;25.380;2023-02-10T13:17:09;100032.66;;;6.20;33.03
40850;BME280;26571;41.610;25.380;2023-02-10T13:19:58;100036.13;;;5.94;34.08
40850;BME280;26571;41.610;25.380;2023-02-10T13:22:50;100038.88;;;6.05;33.72
40850;BME280;26571;41.610;25.380;2023-02-10T13:28:12;100027.34;;;5.66;34.37
40850;BME280;26571;41.610;25.380;2023-02-10T13:36:17;100012.19;;;5.59;34.66
40850;BME280;26571;41.610;25.380;2023-02-10T13:38:46;100015.44;;;5.62;34.31
40850;BME280;26571;41.610;25.380;2023-02-10T13:41:33;100035.56;;;5.75;33.86
40850;BME280;26571;41.610;25.380;2023-02-10T13:44:17;100026.34;;;5.55;34.70
40850;BME280;26571;41.610;25.380;2023-02-10T13:46:46;100031.69;;;5.39;34.63
40850;BME280;26571;41.610;25.380;2023-02-10T13:49:17;100019.81;;;5.62;34.62
40850;BME280;26571;41.610;25.380;2023-02-10T13:51:43;100023.34;;;5.61;34.23
40850;BME280;26571;41.610;25.380;2023-02-10T13:54:30;100031.25;;;5.88;36.25
40850;BME280;26571;41.610;25.380;2023-02-10T13:56:57;100015.31;;;5.78;34.30
40850;BME280;26571;41.610;25.380;2023-02-10T13:59:38;100031.03;;;5.91;33.66
40850;BME280;26571;41.610;25.380;2023-02-10T14:02:30;100029.47;;;6.03;33.24
40850;BME280;26571;41.610;25.380;2023-02-10T14:04:56;100031.13;;;5.62;33.81
40850;BME280;26571;41.610;25.380;2023-02-10T14:13:21;100026.09;;;5.45;34.42
40850;BME280;26571;41.610;25.380;2023-02-10T14:15:57;100028.69;;;5.45;34.83
40850;BME280;26571;41.610;25.380;2023-02-10T14:18:34;100028.25;;;5.38;33.52
40850;BME280;26571;41.610;25.380;2023-02-10T14:23:25;100022.63;;;5.02;34.90
40850;BME280;26571;41.610;25.380;2023-02-10T14:26:19;100023.97;;;5.23;35.90
40850;BME280;26571;41.610;25.380;2023-02-10T14:28:52;100026.84;;;5.18;34.35
40850;BME280;26571;41.610;25.380;2023-02-10T14:31:30;100010.63;;;4.99;34.62
40850;BME280;26571;41.610;25.380;2023-02-10T14:34:03;100011.66;;;4.66;34.83
40850;BME280;26571;41.610;25.380;2023-02-10T14:36:29;100031.19;;;4.89;34.93
40850;BME280;26571;41.610;25.380;2023-02-10T14:38:57;100045.25;;;4.73;34.67
40850;BME280;26571;41.610;25.380;2023-02-10T14:41:24;100031.44;;;4.71;35.44
40850;BME280;26571;41.610;25.380;2023-02-10T14:43:50;100029.03;;;4.82;34.82
40850;BME280;26571;41.610;25.380;2023-02-10T14:46:25;100032.03;;;4.90;34.49
40850;BME280;26571;41.610;25.380;2023-02-10T14:48:59;100031.28;;;4.88;34.77
40850;BME280;26571;41.610;25.380;2023-02-10T14:51:27;100016.22;;;4.93;35.32